Time;durP1;ratioP1;P1;durP2;ratioP2;P2;SDS_P1;SDS_P2;PMS_P1;PMS_P2;Temp;Humidity;BMP_temperature;BMP_pressure;BME280_temperature;BME280_humidity;BME280_pressure;Samples;Min_cycle;Max_cycle;Signal;HPM_P1;HPM_P2
2021/10/25 00:02:06;;;;;;;14.48;10.00;;;8.30;92.30;;;;;;5051433;28;20032;-73
2021/10/25 00:04:33;;;;;;;16.75;11.02;;;8.30;92.30;;;;;;5051978;28;20029;-73
2021/10/25 00:06:59;;;;;;;20.42;11.68;;;8.30;92.30;;;;;;5033821;28;20025;-72
2021/10/25 00:09:24;;;;;;;15.85;10.70;;;8.30;92.30;;;;;;5051703;28;20025;-72
2021/10/25 00:11:50;;;;;;;15.27;10.05;;;8.30;92.30;;;;;;5035098;28;20055;-72
2021/10/25 00:14:16;;;;;;;17.67;11.32;;;8.20;92.20;;;;;;5055963;28;20096;-73
2021/10/25 00:16:43;;;;;;;17.27;10.73;;;8.10;92.20;;;;;;5038039;28;20385;-73
2021/10/25 00:19:10;;;;;;;17.73;10.48;;;8.10;92.40;;;;;;5055420;28;20025;-73
2021/10/25 00:21:36;;;;;;;14.98;9.52;;;8.10;92.40;;;;;;5056028;28;20091;-72
2021/10/25 00:24:02;;;;;;;16.15;10.80;;;8.10;92.50;;;;;;5037318;28;20021;-72
2021/10/25 00:26:28;;;;;;;15.60;10.68;;;8.10;92.50;;;;;;5037898;28;20021;-73
2021/10/25 00:28:54;;;;;;;19.83;10.40;;;8.10;92.50;;;;;;5055613;28;20465;-73
2021/10/25 00:31:19;;;;;;;19.60;10.88;;;8.00;92.40;;;;;;5055730;28;20025;-73
2021/10/25 00:33:45;;;;;;;16.55;9.93;;;8.00;92.40;;;;;;5055642;28;20021;-73
2021/10/25 00:36:11;;;;;;;16.10;10.52;;;8.00;92.60;;;;;;5037395;28;20455;-73
2021/10/25 00:38:37;;;;;;;17.60;10.95;;;8.00;92.70;;;;;;5037576;28;20029;-73
2021/10/25 00:41:03;;;;;;;16.17;10.57;;;8.00;92.70;;;;;;5054969;28;20375;-72
2021/10/25 00:43:29;;;;;;;14.48;10.52;;;8.00;92.60;;;;;;5055076;28;20071;-72
2021/10/25 00:45:55;;;;;;;20.45;11.13;;;7.90;92.50;;;;;;5055215;28;20044;-72
2021/10/25 00:48:21;;;;;;;18.83;11.45;;;7.90;92.70;;;;;;5055091;28;20033;-73
2021/10/25 00:50:47;;;;;;;17.33;11.82;;;7.90;92.90;;;;;;5055267;28;20083;-72
2021/10/25 00:53:12;;;;;;;19.85;11.50;;;8.00;92.90;;;;;;5037256;28;20017;-72
2021/10/25 00:55:39;;;;;;;17.75;11.15;;;7.90;92.90;;;;;;5037538;28;20416;-72
2021/10/25 00:58:05;;;;;;;17.90;11.10;;;7.90;92.90;;;;;;5054686;28;20083;-72
2021/10/25 01:00:32;;;;;;;17.13;11.68;;;7.90;93.00;;;;;;5054852;28;20033;-72
2021/10/25 01:02:58;;;;;;;14.75;10.85;;;7.80;93.00;;;;;;5054890;28;20033;-72
2021/10/25 01:05:24;;;;;;;16.63;10.57;;;7.80;93.00;;;;;;5055020;28;20032;-72
2021/10/25 01:07:53;;;;;;;18.55;10.85;;;7.80;93.00;;;;;;5037157;28;20028;-72
2021/10/25 01:10:18;;;;;;;19.10;11.85;;;7.80;93.00;;;;;;5054576;28;20104;-73
2021/10/25 01:12:45;;;;;;;17.38;11.02;;;7.80;93.10;;;;;;5054962;28;20104;-73
2021/10/25 01:15:10;;;;;;;15.85;10.90;;;7.80;93.10;;;;;;5055136;28;20103;-73
2021/10/25 01:17:36;;;;;;;18.05;11.18;;;7.80;93.00;;;;;;5054836;28;20127;-73
2021/10/25 01:20:03;;;;;;;19.02;10.75;;;7.70;93.00;;;;;;5054292;28;20029;-73
2021/10/25 01:22:29;;;;;;;16.40;11.13;;;7.70;92.90;;;;;;5053918;28;20475;-73
2021/10/25 01:24:55;;;;;;;18.35;11.15;;;7.70;93.00;;;;;;5055151;28;20033;-73
2021/10/25 01:27:21;;;;;;;16.23;10.75;;;7.70;93.00;;;;;;5054552;28;20068;-73
2021/10/25 01:29:48;;;;;;;17.88;10.90;;;7.70;93.20;;;;;;5036719;28;20080;-72
2021/10/25 01:32:14;;;;;;;29.13;13.80;;;7.70;93.20;;;;;;5054118;28;20397;-74
2021/10/25 01:34:40;;;;;;;16.17;10.80;;;7.70;93.20;;;;;;5054169;28;20021;-72
2021/10/25 01:37:08;;;;;;;19.20;11.30;;;7.70;93.10;;;;;;5053906;28;20032;-72
2021/10/25 01:39:34;;;;;;;17.40;11.35;;;7.70;93.20;;;;;;5036493;28;20067;-73
2021/10/25 01:42:00;;;;;;;15.07;10.68;;;7.70;93.20;;;;;;5054066;28;20037;-73
2021/10/25 01:44:25;;;;;;;20.83;11.13;;;7.70;93.30;;;;;;5054404;28;20354;-74
2021/10/25 01:46:51;;;;;;;18.75;11.02;;;7.60;93.20;;;;;;5054013;28;20187;-73
2021/10/25 01:49:16;;;;;;;18.67;12.27;;;7.60;93.30;;;;;;5036099;28;20040;-73
2021/10/25 01:51:42;;;;;;;18.67;10.82;;;7.60;93.40;;;;;;5054178;28;20075;-73
2021/10/25 01:54:09;;;;;;;16.77;10.63;;;7.60;93.50;;;;;;5054001;28;20017;-73
2021/10/25 01:56:37;;;;;;;16.98;10.98;;;7.60;93.40;;;;;;5054166;28;20362;-72
2021/10/25 01:59:04;;;;;;;20.63;11.25;;;7.70;93.50;;;;;;5053757;28;20025;-72
2021/10/25 02:01:29;;;;;;;16.65;11.32;;;7.60;93.50;;;;;;5036452;28;20585;-72
2021/10/25 02:03:55;;;;;;;16.73;11.52;;;7.70;93.50;;;;;;5053692;28;20165;-73
2021/10/25 02:06:20;;;;;;;16.65;10.85;;;7.70;93.50;;;;;;5035721;28;20116;-72
2021/10/25 02:08:47;;;;;;;16.75;10.90;;;7.80;93.50;;;;;;5053994;28;20032;-71
2021/10/25 02:11:13;;;;;;;20.20;11.02;;;7.90;93.50;;;;;;5054020;28;20060;-73
2021/10/25 02:13:39;;;;;;;17.23;11.23;;;7.90;93.30;;;;;;5053899;28;20024;-73
2021/10/25 02:16:05;;;;;;;16.48;12.05;;;8.00;93.30;;;;;;5053382;28;20095;-73
2021/10/25 02:18:30;;;;;;;21.67;12.00;;;8.00;93.20;;;;;;5053952;28;20103;-73
2021/10/25 02:20:56;;;;;;;18.75;11.18;;;8.10;93.20;;;;;;5053439;28;20032;-73
2021/10/25 02:23:22;;;;;;;18.33;11.25;;;8.10;93.00;;;;;;5053230;28;20029;-73
2021/10/25 02:25:48;;;;;;;18.73;10.25;;;8.20;93.00;;;;;;5053468;28;20029;-73
2021/10/25 02:28:14;;;;;;;17.55;10.18;;;8.20;92.90;;;;;;5053088;28;20083;-73
2021/10/25 02:30:39;;;;;;;16.33;10.02;;;8.30;92.90;;;;;;5035585;28;20028;-73
2021/10/25 02:33:05;;;;;;;19.90;10.27;;;8.30;92.80;;;;;;5053107;28;20021;-73
2021/10/25 02:35:31;;;;;;;14.82;9.95;;;8.30;92.70;;;;;;5052521;28;20076;-73
2021/10/25 02:37:57;;;;;;;13.98;9.88;;;8.40;92.70;;;;;;5053286;28;20451;-73
2021/10/25 02:40:25;;;;;;;18.65;10.70;;;8.40;92.70;;;;;;5035122;28;20114;-73
2021/10/25 02:42:52;;;;;;;14.52;9.88;;;8.40;92.70;;;;;;5053178;28;20461;-73
2021/10/25 02:45:19;;;;;;;18.40;10.07;;;8.40;92.70;;;;;;5052509;28;20029;-73
2021/10/25 02:47:45;;;;;;;15.07;9.45;;;8.40;92.70;;;;;;5053081;28;20409;-73
2021/10/25 02:50:10;;;;;;;16.00;10.60;;;8.50;92.70;;;;;;5034755;28;20454;-73
2021/10/25 02:52:36;;;;;;;14.35;9.88;;;8.50;92.70;;;;;;5052924;28;20450;-73
2021/10/25 02:55:02;;;;;;;15.43;9.32;;;8.50;92.90;;;;;;5052817;28;20076;-73
2021/10/25 02:57:28;;;;;;;14.57;9.25;;;8.60;92.80;;;;;;5052400;28;20485;-73
2021/10/25 02:59:54;;;;;;;17.13;9.32;;;8.60;92.70;;;;;;5052710;28;20071;-73
2021/10/25 03:02:19;;;;;;;12.07;8.95;;;8.60;92.70;;;;;;5052445;28;20096;-72
2021/10/25 03:04:45;;;;;;;15.18;10.48;;;8.70;92.70;;;;;;5052735;28;20024;-73
2021/10/25 03:07:11;;;;;;;11.98;8.98;;;8.70;92.60;;;;;;5052179;28;20501;-73
2021/10/25 03:09:37;;;;;;;21.67;10.10;;;8.70;92.60;;;;;;5052740;28;20025;-72
2021/10/25 03:12:03;;;;;;;15.45;9.90;;;8.70;92.60;;;;;;5052319;28;20111;-72
2021/10/25 03:14:28;;;;;;;15.32;8.85;;;8.70;92.60;;;;;;5052388;28;20088;-72
2021/10/25 03:16:54;;;;;;;15.73;9.82;;;8.70;92.60;;;;;;5052832;28;20152;-72
2021/10/25 03:19:20;;;;;;;15.20;9.10;;;8.80;92.50;;;;;;5051991;28;20103;-72
2021/10/25 03:21:46;;;;;;;27.50;10.43;;;8.80;92.40;;;;;;5052299;28;20029;-73
2021/10/25 03:24:12;;;;;;;13.27;9.77;;;8.80;92.50;;;;;;5052609;28;20027;-73
2021/10/25 03:26:37;;;;;;;13.43;8.95;;;8.80;92.50;;;;;;5052797;28;20026;-72
2021/10/25 03:29:03;;;;;;;13.20;7.65;;;8.90;92.40;;;;;;5052372;28;20036;-72
2021/10/25 03:31:29;;;;;;;14.02;9.00;;;8.90;92.40;;;;;;5051853;28;20032;-72
2021/10/25 03:33:54;;;;;;;12.50;8.30;;;8.90;92.30;;;;;;5052310;28;20025;-72
2021/10/25 03:36:24;;;;;;;14.35;8.77;;;8.90;92.30;;;;;;5034554;28;20071;-72
2021/10/25 03:38:50;;;;;;;11.32;8.25;;;8.90;92.30;;;;;;5052405;28;20017;-72
2021/10/25 03:41:23;;;;;;;13.40;8.45;;;9.00;92.30;;;;;;5051811;28;20032;-72
2021/10/25 03:43:58;;;;;;;13.70;8.65;;;8.90;92.20;;;;;;5052200;28;20060;-72
2021/10/25 03:49:17;;;;;;;13.07;7.88;;;8.90;92.20;;;;;;5052138;28;20052;-72
2021/10/25 03:51:44;;;;;;;14.20;7.90;;;9.00;92.20;;;;;;5052828;28;20052;-71
2021/10/25 04:26:34;;;;;;;14.45;8.13;;;9.10;92.00;;;;;;5051532;28;20457;-72
2021/10/25 04:29:00;;;;;;;;;;;9.20;92.10;;;;;;5052252;28;20401;-72
2021/10/25 04:31:25;;;;;;;13.25;7.90;;;9.20;92.00;;;;;;5051448;28;19906;-73
2021/10/25 04:33:51;;;;;;;13.55;8.15;;;9.10;92.00;;;;;;5051591;28;20029;-73
2021/10/25 04:36:16;;;;;;;13.02;8.00;;;9.10;92.00;;;;;;5051373;28;20025;-72
2021/10/25 04:38:42;;;;;;;15.10;8.07;;;9.20;92.10;;;;;;5051985;28;20424;-72
2021/10/25 04:41:08;;;;;;;13.77;8.07;;;9.20;92.10;;;;;;5051150;28;20021;-71
2021/10/25 04:43:33;;;;;;;18.67;8.57;;;9.30;92.10;;;;;;5033518;28;20120;-72
2021/10/25 04:45:59;;;;;;;17.40;7.97;;;9.30;92.10;;;;;;5051641;28;20132;-72
2021/10/25 04:48:25;;;;;;;17.20;8.45;;;9.30;92.10;;;;;;5051693;28;20025;-71
2021/10/25 04:50:50;;;;;;;10.38;7.60;;;9.40;92.10;;;;;;5033909;28;20052;-72
2021/10/25 04:53:16;;;;;;;14.73;8.25;;;9.40;92.00;;;;;;5051871;28;20021;-72
2021/10/25 04:55:41;;;;;;;13.02;8.18;;;9.40;92.00;;;;;;5051853;28;20033;-73
2021/10/25 04:58:07;;;;;;;15.70;8.95;;;9.40;92.00;;;;;;5052950;28;20544;-73
2021/10/25 05:00:33;;;;;;;12.45;7.32;;;9.40;92.00;;;;;;5055003;28;20494;-73
2021/10/25 05:02:59;;;;;;;12.13;7.70;;;9.50;92.00;;;;;;5055155;28;20025;-74
2021/10/25 05:05:25;;;;;;;13.57;8.80;;;9.50;92.00;;;;;;5054639;28;20025;-73
2021/10/25 05:07:51;;;;;;;13.35;7.72;;;9.50;92.00;;;;;;5037087;28;20017;-73
2021/10/25 05:10:17;;;;;;;13.30;7.63;;;9.50;92.00;;;;;;5054524;28;20021;-74
2021/10/25 05:12:42;;;;;;;13.18;8.48;;;9.50;92.00;;;;;;5055062;28;20450;-73
2021/10/25 05:15:09;;;;;;;13.13;8.23;;;9.50;92.10;;;;;;5054795;28;20029;-73
2021/10/25 05:17:34;;;;;;;15.77;9.52;;;9.60;92.20;;;;;;5036691;28;20021;-73
2021/10/25 05:20:00;;;;;;;12.88;8.30;;;9.60;92.20;;;;;;5054995;28;20072;-73
2021/10/25 05:22:26;;;;;;;14.88;7.47;;;9.60;92.30;;;;;;5036414;28;20044;-73
2021/10/25 05:24:52;;;;;;;14.43;7.75;;;9.60;92.20;;;;;;5054800;28;20021;-72
2021/10/25 05:27:21;;;;;;;13.90;8.32;;;9.60;92.30;;;;;;5054233;28;20527;-73
2021/10/25 05:29:46;;;;;;;16.20;8.15;;;9.60;92.60;;;;;;5054278;28;20458;-73
2021/10/25 05:32:13;;;;;;;14.07;8.55;;;9.60;92.30;;;;;;5036358;28;20040;-72
2021/10/25 05:34:39;;;;;;;14.13;8.45;;;9.70;92.30;;;;;;5036686;28;20144;-73
2021/10/25 05:37:04;;;;;;;14.13;7.10;;;9.70;92.30;;;;;;5036442;28;20072;-73
2021/10/25 05:39:30;;;;;;;14.02;7.75;;;9.70;92.30;;;;;;5053531;28;20111;-73
2021/10/25 05:41:56;;;;;;;14.82;8.05;;;9.70;92.30;;;;;;5039154;28;20494;-73
2021/10/25 05:44:25;;;;;;;16.08;8.40;;;9.70;92.30;;;;;;5035235;28;20032;-72
2021/10/25 05:46:51;;;;;;;15.20;7.38;;;9.80;92.30;;;;;;5039176;28;20038;-72
2021/10/25 05:49:16;;;;;;;13.77;7.32;;;9.80;92.30;;;;;;5033987;28;20085;-73
2021/10/25 05:51:42;;;;;;;12.82;7.28;;;9.80;92.30;;;;;;5033685;28;20129;-73
2021/10/25 05:54:08;;;;;;;11.63;7.85;;;9.80;92.30;;;;;;5015885;28;20509;-72
2021/10/25 05:56:34;;;;;;;15.35;8.00;;;9.80;92.30;;;;;;5033249;28;20030;-73
2021/10/25 05:59:00;;;;;;;14.43;8.57;;;9.80;92.30;;;;;;5015753;28;20033;-73
2021/10/25 06:01:30;;;;;;;14.13;7.47;;;9.90;92.40;;;;;;5032978;28;20069;-74
2021/10/25 06:04:03;;;;;;;14.68;8.60;;;9.90;92.40;;;;;;5015627;28;20033;-74
2021/10/25 06:06:29;;;;;;;15.25;7.28;;;9.80;92.40;;;;;;5033586;28;20017;-73
2021/10/25 06:08:54;;;;;;;12.60;6.47;;;9.90;92.50;;;;;;5015126;28;20048;-73
2021/10/25 06:11:20;;;;;;;13.00;6.93;;;9.90;92.50;;;;;;5015745;28;20423;-73
2021/10/25 06:13:46;;;;;;;13.13;8.18;;;9.90;92.50;;;;;;5033988;28;20028;-73
2021/10/25 06:16:14;;;;;;;19.48;7.88;;;9.90;92.60;;;;;;5033860;28;20017;-73
2021/10/25 06:18:41;;;;;;;14.02;8.27;;;9.90;92.60;;;;;;5033690;28;20025;-73
2021/10/25 06:21:07;;;;;;;12.48;7.95;;;10.00;92.70;;;;;;5033710;28;20026;-72
2021/10/25 06:23:33;;;;;;;12.82;7.85;;;9.90;92.60;;;;;;5033167;28;20030;-73
2021/10/25 06:25:59;;;;;;;15.38;7.85;;;10.00;92.70;;;;;;5033825;28;20021;-73
2021/10/25 06:28:27;;;;;;;14.40;7.20;;;9.90;92.90;;;;;;5015703;28;20125;-73
2021/10/25 06:31:00;;;;;;;15.23;7.25;;;10.00;92.70;;;;;;5033454;28;20028;-72
2021/10/25 06:33:25;;;;;;;11.40;7.15;;;10.00;92.60;;;;;;5033427;28;20021;-73
2021/10/25 06:36:02;;;;;;;13.25;8.13;;;10.00;92.50;;;;;;5033481;28;20576;-72
2021/10/25 06:38:35;;;;;;;12.43;6.70;;;10.00;92.40;;;;;;5033504;28;20021;-74
2021/10/25 06:41:01;;;;;;;13.40;7.45;;;10.00;92.40;;;;;;5033544;28;20032;-74
2021/10/25 06:43:28;;;;;;;12.70;6.38;;;10.00;92.30;;;;;;5033180;28;20059;-73
2021/10/25 06:45:54;;;;;;;12.45;5.95;;;10.00;92.30;;;;;;5033302;28;20030;-73
2021/10/25 06:48:21;;;;;;;15.55;6.95;;;10.00;92.20;;;;;;5015321;28;20022;-73
2021/10/25 06:50:47;;;;;;;11.40;6.85;;;10.00;92.20;;;;;;5033159;28;20125;-72
2021/10/25 06:53:14;;;;;;;13.65;6.80;;;10.10;92.10;;;;;;5033655;28;20505;-74
2021/10/25 06:55:40;;;;;;;13.95;6.32;;;10.10;92.00;;;;;;5016335;28;20465;-74
2021/10/25 06:58:07;;;;;;;11.10;6.07;;;10.10;92.10;;;;;;5036557;28;20040;-73
2021/10/25 07:00:33;;;;;;;13.73;7.78;;;10.10;91.90;;;;;;5035856;28;20109;-73
2021/10/25 07:02:58;;;;;;;9.52;6.55;;;10.10;91.80;;;;;;5034805;28;20053;-72
2021/10/25 07:05:24;;;;;;;12.10;6.90;;;10.10;91.60;;;;;;5036125;28;20041;-73
2021/10/25 07:07:50;;;;;;;10.65;5.88;;;10.20;91.50;;;;;;5033401;28;20022;-73
2021/10/25 07:10:16;;;;;;;12.18;7.47;;;10.20;91.40;;;;;;5033258;28;20029;-74
2021/10/25 07:12:44;;;;;;;10.52;6.32;;;10.20;91.40;;;;;;5032691;28;20053;-73
2021/10/25 07:15:10;;;;;;;12.70;6.57;;;10.20;91.40;;;;;;5015367;28;20022;-72
2021/10/25 07:17:41;;;;;;;9.55;5.70;;;10.20;91.40;;;;;;5032782;28;20029;-73
2021/10/25 07:20:31;;;;;;;13.55;7.03;;;10.20;91.30;;;;;;5032382;28;20026;-73
2021/10/25 08:11:57;;;;;;;13.50;6.47;;;10.70;92.40;;;;;;5038730;28;20474;-73
2021/10/25 08:14:30;;;;;;;10.27;6.43;;;10.80;92.00;;;;;;5047591;28;20024;-74
2021/10/25 08:16:56;;;;;;;11.23;6.80;;;10.80;91.80;;;;;;5019191;28;20020;-74
2021/10/25 08:19:25;;;;;;;13.02;6.38;;;10.80;91.80;;;;;;5024884;28;20394;-74
2021/10/25 08:21:53;;;;;;;10.40;5.47;;;10.80;91.80;;;;;;5044313;28;20060;-74
2021/10/25 08:24:19;;;;;;;10.15;5.55;;;10.90;91.80;;;;;;5035085;28;20064;-74
2021/10/25 08:26:46;;;;;;;12.18;5.60;;;10.90;91.50;;;;;;5047484;28;20045;-73
2021/10/25 08:29:15;;;;;;;10.75;6.30;;;11.00;91.70;;;;;;5021225;28;20472;-74
2021/10/25 08:31:42;;;;;;;9.30;5.30;;;11.00;90.90;;;;;;5039612;28;20030;-73
2021/10/25 08:34:36;;;;;;;10.88;5.88;;;11.00;91.10;;;;;;5032484;28;20402;-74
2021/10/25 08:42:21;;;;;;;9.63;6.38;;;11.10;91.10;;;;;;5039523;28;20037;-74
2021/10/25 08:44:51;;;;;;;12.52;6.40;;;11.10;91.00;;;;;;5015254;28;20089;-73
2021/10/25 08:47:22;;;;;;;;;;;11.10;90.80;;;;;;5015686;28;20040;-73
2021/10/25 08:49:48;;;;;;;14.02;6.90;;;11.20;90.40;;;;;;5015677;28;19993;-73
2021/10/25 08:52:20;;;;;;;12.70;6.65;;;11.10;90.10;;;;;;5015309;28;20029;-74
2021/10/25 08:54:47;;;;;;;11.25;5.28;;;11.10;90.10;;;;;;5015466;28;20026;-73
2021/10/25 08:57:13;;;;;;;13.82;6.75;;;11.00;90.20;;;;;;5015341;28;20538;-73
2021/10/25 08:59:39;;;;;;;12.25;6.85;;;11.10;90.20;;;;;;5015396;28;20061;-73
2021/10/25 09:02:09;;;;;;;11.82;6.00;;;11.10;90.20;;;;;;4997781;28;20125;-74
2021/10/25 09:04:35;;;;;;;11.55;6.43;;;11.10;90.20;;;;;;4997842;28;20034;-74
2021/10/25 09:07:01;;;;;;;13.07;7.07;;;11.10;90.20;;;;;;5015576;28;20441;-74
2021/10/25 09:09:28;;;;;;;9.57;6.18;;;11.20;90.20;;;;;;5014915;28;20038;-74
2021/10/25 09:12:08;;;;;;;13.25;6.03;;;11.20;90.00;;;;;;5014041;28;20033;-74
2021/10/25 09:14:35;;;;;;;11.98;6.70;;;11.30;90.10;;;;;;5035984;28;20036;-73
2021/10/25 09:17:04;;;;;;;12.75;7.05;;;11.30;90.00;;;;;;5035139;28;20048;-73
2021/10/25 09:19:31;;;;;;;10.25;5.90;;;11.30;90.10;;;;;;5032532;28;20087;-74
2021/10/25 09:22:10;;;;;;;11.45;6.13;;;11.30;90.30;;;;;;5032985;28;20029;-73
2021/10/25 09:24:36;;;;;;;14.35;6.82;;;11.30;90.20;;;;;;5024366;28;20065;-73
2021/10/25 09:27:05;;;;;;;12.68;6.10;;;11.30;90.10;;;;;;5043114;28;20098;-74
2021/10/25 09:29:34;;;;;;;12.57;6.95;;;11.30;90.20;;;;;;5025249;28;20029;-74
2021/10/25 09:32:14;;;;;;;12.27;6.32;;;11.40;90.20;;;;;;5053689;28;20028;-73
2021/10/25 09:34:52;;;;;;;11.20;6.97;;;11.40;90.40;;;;;;5007326;28;20021;-75
2021/10/25 09:37:23;;;;;;;11.27;6.18;;;11.40;90.30;;;;;;5027551;28;20534;-73
2021/10/25 09:42:50;;;;;;;10.38;6.32;;;11.40;90.30;;;;;;5050827;28;20469;-73
2021/10/25 09:45:29;;;;;;;11.40;7.15;;;11.40;90.20;;;;;;5040579;28;20036;-73
2021/10/25 09:50:50;;;;;;;14.68;7.20;;;11.40;90.30;;;;;;5019568;28;20024;-74
2021/10/25 09:53:15;;;;;;;11.98;7.53;;;11.50;90.40;;;;;;5044533;28;20549;-74
2021/10/25 09:55:45;;;;;;;15.15;7.07;;;11.50;90.40;;;;;;5022153;28;20165;-74
2021/10/25 09:58:18;;;;;;;9.18;5.03;;;11.50;90.30;;;;;;5032325;28;20029;-73
2021/10/25 10:00:45;;;;;;;11.05;6.78;;;11.50;90.50;;;;;;5039761;28;20065;-73
2021/10/25 10:03:12;;;;;;;12.27;7.78;;;11.50;90.30;;;;;;5026411;28;20034;-73
2021/10/25 10:05:39;;;;;;;11.57;5.95;;;11.60;90.40;;;;;;5029129;28;20029;-74
2021/10/25 10:08:07;;;;;;;11.43;6.97;;;11.60;90.30;;;;;;5037436;28;20025;-73
2021/10/25 10:10:32;;;;;;;10.93;6.40;;;11.60;90.30;;;;;;5049345;28;20052;-74
2021/10/25 10:13:01;;;;;;;12.95;6.53;;;11.60;90.40;;;;;;5041694;28;20056;-72
2021/10/25 10:15:29;;;;;;;10.45;6.60;;;11.60;90.40;;;;;;5023934;28;20025;-73
2021/10/25 10:18:00;;;;;;;8.70;4.97;;;11.60;90.40;;;;;;5034419;28;20057;-74
2021/10/25 10:20:32;;;;;;;12.85;6.55;;;11.70;90.60;;;;;;5015918;28;20037;-74
2021/10/25 10:23:00;;;;;;;10.65;6.40;;;11.70;90.40;;;;;;5016572;28;20033;-74
2021/10/25 10:25:31;;;;;;;8.95;6.10;;;11.70;90.20;;;;;;5033706;28;20022;-73
2021/10/25 10:27:58;;;;;;;13.48;7.22;;;11.70;90.20;;;;;;5033430;28;20100;-74
2021/10/25 10:30:24;;;;;;;7.95;5.40;;;11.70;90.20;;;;;;5033447;28;20359;-73
2021/10/25 10:33:01;;;;;;;10.80;6.10;;;11.70;90.30;;;;;;5033727;28;20085;-74
2021/10/25 10:35:38;;;;;;;16.95;7.10;;;11.70;90.30;;;;;;5033291;28;20032;-74
2021/10/25 10:38:04;;;;;;;12.23;6.47;;;11.80;90.30;;;;;;5033993;28;20104;-74
2021/10/25 10:40:40;;;;;;;13.50;7.72;;;11.80;90.30;;;;;;5015893;28;20105;-74
2021/10/25 10:43:19;;;;;;;11.60;6.78;;;11.80;90.20;;;;;;5033842;28;20485;-74
2021/10/25 10:45:55;;;;;;;16.20;7.00;;;11.90;90.00;;;;;;5033475;28;20041;-74
2021/10/25 10:48:29;;;;;;;13.05;6.57;;;11.90;90.00;;;;;;5033530;28;20021;-74
2021/10/25 10:51:04;;;;;;;11.98;6.28;;;12.00;90.00;;;;;;5033296;28;20549;-74
2021/10/25 10:53:49;;;;;;;11.50;6.85;;;12.10;90.00;;;;;;5033235;28;20025;-74
2021/10/25 10:56:23;;;;;;;10.40;5.35;;;12.20;90.00;;;;;;5032678;28;20053;-73
2021/10/25 10:58:52;;;;;;;8.65;4.97;;;12.20;89.80;;;;;;5015082;28;20029;-74
2021/10/25 11:01:18;;;;;;;9.27;6.15;;;12.10;89.60;;;;;;5033314;28;20025;-74
2021/10/25 11:03:43;;;;;;;10.18;4.80;;;12.20;89.70;;;;;;5033011;28;20382;-74
2021/10/25 11:06:17;;;;;;;11.10;6.25;;;12.20;89.80;;;;;;5015372;28;20018;-73
2021/10/25 11:08:45;;;;;;;17.25;7.10;;;12.20;89.90;;;;;;5032830;28;20029;-72
2021/10/25 11:11:13;;;;;;;13.02;6.85;;;12.20;89.60;;;;;;5015012;28;20025;-74
2021/10/25 11:13:45;;;;;;;12.18;6.93;;;12.30;89.60;;;;;;5032687;28;20024;-73
2021/10/25 11:16:23;;;;;;;11.40;5.75;;;12.40;89.60;;;;;;5015122;28;20481;-74
2021/10/25 11:18:52;;;;;;;9.52;6.18;;;12.40;89.40;;;;;;5033013;28;20045;-74
2021/10/25 11:21:25;;;;;;;8.38;5.75;;;12.50;89.00;;;;;;5032921;28;20087;-74
2021/10/25 11:24:10;;;;;;;10.55;5.03;;;12.50;88.90;;;;;;5034368;28;20061;-73
2021/10/25 11:26:36;;;;;;;8.80;5.47;;;12.50;89.20;;;;;;5019645;28;20029;-75
2021/10/25 11:29:07;;;;;;;10.02;5.70;;;12.50;88.90;;;;;;5035342;28;20021;-73
2021/10/25 11:31:41;;;;;;;12.00;7.03;;;12.50;89.00;;;;;;5032353;28;20029;-74
2021/10/25 11:34:19;;;;;;;11.73;6.03;;;12.50;88.90;;;;;;5045404;28;20020;-74
2021/10/25 11:36:55;;;;;;;12.85;6.07;;;12.50;89.20;;;;;;5043801;28;20031;-73
2021/10/25 11:39:45;;;;;;;10.73;5.53;;;12.70;89.70;;;;;;5036119;28;20021;-74
2021/10/25 11:42:17;;;;;;;9.65;4.55;;;12.80;88.90;;;;;;5044828;28;20120;-73
2021/10/25 11:44:44;;;;;;;12.57;6.78;;;12.90;88.40;;;;;;5043327;28;20104;-73
2021/10/25 11:47:23;;;;;;;9.45;4.63;;;13.00;88.10;;;;;;5036496;28;20049;-73
2021/10/25 11:49:50;;;;;;;6.47;3.58;;;13.10;87.90;;;;;;4998428;28;20026;-73
2021/10/25 11:52:16;;;;;;;4.45;2.00;;;13.20;87.80;;;;;;5039625;28;20021;-74
2021/10/25 11:54:53;;;;;;;5.68;2.22;;;13.30;87.60;;;;;;5039952;28;20057;-73
2021/10/25 11:57:23;;;;;;;5.75;2.17;;;13.30;87.30;;;;;;5047974;28;20048;-73
2021/10/25 12:00:15;;;;;;;4.88;2.72;;;13.30;87.50;;;;;;5035712;28;20454;-74
2021/10/25 12:02:40;;;;;;;8.00;3.20;;;13.30;87.80;;;;;;5035574;28;20363;-74
2021/10/25 12:05:07;;;;;;;10.77;4.25;;;13.30;87.90;;;;;;5046087;28;20486;-73
2021/10/25 12:07:34;;;;;;;6.25;4.07;;;13.30;88.10;;;;;;5037461;28;20036;-74
2021/10/25 12:10:06;;;;;;;10.02;6.00;;;13.30;88.20;;;;;;5049984;28;20060;-74
2021/10/25 12:12:33;;;;;;;10.75;5.72;;;13.50;87.50;;;;;;5045755;28;20025;-74
2021/10/25 12:15:02;;;;;;;9.95;6.13;;;13.80;86.30;;;;;;5042104;28;20074;-73
2021/10/25 12:17:32;;;;;;;11.05;5.82;;;14.00;85.00;;;;;;5034231;28;20450;-73
2021/10/25 12:20:03;;;;;;;10.00;6.25;;;14.00;84.60;;;;;;5023389;28;20048;-73
2021/10/25 12:22:29;;;;;;;11.98;6.32;;;14.00;84.40;;;;;;5027678;28;20029;-74
2021/10/25 12:24:57;;;;;;;10.73;5.70;;;14.00;84.70;;;;;;5048762;28;20094;-74
2021/10/25 12:27:41;;;;;;;9.27;5.97;;;14.00;84.60;;;;;;5039044;28;20090;-74
2021/10/25 12:30:14;;;;;;;12.68;6.07;;;14.10;85.10;;;;;;5049120;28;20017;-74
2021/10/25 12:32:50;;;;;;;8.18;5.57;;;14.50;84.70;;;;;;5046243;28;20034;-74
2021/10/25 12:35:16;;;;;;;8.90;5.32;;;15.00;83.10;;;;;;5039298;28;20126;-74
2021/10/25 12:37:41;;;;;;;10.85;5.38;;;15.20;81.00;;;;;;5020918;28;20128;-73
2021/10/25 12:40:26;;;;;;;8.75;5.00;;;15.30;81.40;;;;;;5030828;28;20410;-74
2021/10/25 12:43:00;;;;;;;8.30;5.13;;;15.80;80.60;;;;;;5047915;28;20485;-73
2021/10/25 12:45:30;;;;;;;13.18;6.93;;;16.10;78.90;;;;;;5020659;28;20400;-74
2021/10/25 12:47:59;;;;;;;10.63;5.53;;;16.00;77.90;;;;;;5050058;28;20018;-74
2021/10/25 12:50:34;;;;;;;11.52;6.50;;;15.70;78.00;;;;;;5026690;28;20025;-73
2021/10/25 12:53:04;;;;;;;12.20;6.32;;;15.50;79.40;;;;;;5041059;28;20030;-73
2021/10/25 12:55:30;;;;;;;9.90;5.20;;;15.50;79.70;;;;;;5033319;28;20374;-73
2021/10/25 12:57:56;;;;;;;11.82;6.22;;;15.70;80.10;;;;;;5039998;28;20032;-72
2021/10/25 13:00:22;;;;;;;12.57;6.63;;;15.70;79.00;;;;;;5046416;28;20049;-73
2021/10/25 13:02:53;;;;;;;12.07;5.40;;;15.70;79.10;;;;;;5029122;28;20140;-72
2021/10/25 13:05:24;;;;;;;10.15;6.65;;;15.80;78.70;;;;;;5038602;28;20017;-73
2021/10/25 13:07:55;;;;;;;10.98;4.85;;;15.70;79.00;;;;;;5032786;28;20013;-74
2021/10/25 13:10:24;;;;;;;9.80;5.47;;;15.50;80.00;;;;;;5026148;28;20462;-74
2021/10/25 13:12:50;;;;;;;10.00;5.70;;;15.30;80.70;;;;;;5041660;28;20036;-74
2021/10/25 13:15:17;;;;;;;9.40;5.93;;;15.30;81.00;;;;;;5051139;28;20048;-74
2021/10/25 13:17:43;;;;;;;12.18;5.63;;;15.30;81.40;;;;;;5039564;28;20100;-73
2021/10/25 13:20:11;;;;;;;10.20;5.88;;;15.10;81.50;;;;;;5036106;28;20073;-72
2021/10/25 13:22:37;;;;;;;7.10;4.93;;;15.00;82.20;;;;;;5047830;28;20063;-74
2021/10/25 13:25:03;;;;;;;8.18;4.97;;;14.80;82.60;;;;;;5040397;28;20040;-74
2021/10/25 13:27:28;;;;;;;11.02;5.00;;;14.80;83.20;;;;;;5046282;28;20466;-74
2021/10/25 13:29:54;;;;;;;9.43;5.65;;;14.80;83.60;;;;;;5034140;28;20100;-74
2021/10/25 13:32:21;;;;;;;11.52;7.07;;;15.00;83.50;;;;;;5034899;28;20112;-75
2021/10/25 13:34:48;;;;;;;8.82;5.45;;;15.20;82.50;;;;;;5034895;28;20022;-74
2021/10/25 13:37:14;;;;;;;8.88;5.80;;;15.10;81.70;;;;;;5016512;28;20129;-74
2021/10/25 13:39:40;;;;;;;10.38;6.63;;;15.10;81.90;;;;;;5016601;28;20104;-74
2021/10/25 13:42:05;;;;;;;11.20;6.32;;;14.90;82.10;;;;;;5034360;28;20022;-74
2021/10/25 13:44:31;;;;;;;9.52;5.93;;;14.80;83.50;;;;;;5033980;28;20077;-73
2021/10/25 13:46:57;;;;;;;10.82;6.30;;;14.70;83.60;;;;;;5034507;28;20025;-75
2021/10/25 13:49:24;;;;;;;10.52;6.25;;;14.60;84.00;;;;;;5034287;28;20029;-75
2021/10/25 13:51:50;;;;;;;10.73;5.22;;;14.50;84.10;;;;;;5016423;28;20454;-75
2021/10/25 13:54:16;;;;;;;8.20;5.35;;;14.50;84.60;;;;;;5016885;28;20448;-74
2021/10/25 13:56:42;;;;;;;10.15;6.07;;;14.60;84.30;;;;;;5033946;28;20092;-74
2021/10/25 13:59:08;;;;;;;14.48;6.25;;;14.70;83.60;;;;;;5016074;28;20025;-74
2021/10/25 14:01:35;;;;;;;8.88;5.43;;;15.00;83.10;;;;;;5034088;28;20136;-75
2021/10/25 14:04:01;;;;;;;8.43;4.78;;;15.20;82.60;;;;;;5034133;28;20092;-75
2021/10/25 14:06:29;;;;;;;9.73;6.55;;;15.20;82.30;;;;;;5034377;28;20017;-75
2021/10/25 14:08:56;;;;;;;8.98;4.43;;;15.20;82.10;;;;;;5033939;28;20022;-73
2021/10/25 14:11:25;;;;;;;11.63;5.75;;;15.20;82.60;;;;;;5034261;28;20048;-75
2021/10/25 14:16:42;;;;;;;11.93;5.93;;;15.30;82.30;;;;;;5034003;28;20382;-72
2021/10/25 14:19:08;;;;;;;9.37;5.40;;;15.30;82.40;;;;;;5034074;28;20382;-73
2021/10/25 14:21:36;;;;;;;10.88;7.03;;;15.30;82.40;;;;;;5033875;28;20037;-73
2021/10/25 14:24:05;;;;;;;10.45;6.15;;;15.20;82.70;;;;;;5034153;28;20028;-73